createdAt,value
2019-03-09T00:02:08.393Z,53.00
2019-03-09T00:04:13.278Z,52.70
2019-03-09T00:06:18.184Z,52.90
2019-03-09T00:08:22.927Z,52.80
2019-03-09T00:10:28.026Z,52.90
2019-03-09T00:12:32.905Z,53.10
2019-03-09T00:14:37.732Z,52.90
2019-03-09T00:16:42.484Z,52.50
2019-03-09T00:18:47.252Z,52.80
2019-03-09T00:20:52.230Z,52.60
2019-03-09T00:23:12.832Z,52.90
2019-03-09T00:25:24.952Z,52.90
2019-03-09T00:27:41.984Z,52.90
2019-03-09T00:30:06.018Z,52.60
2019-03-09T00:32:14.029Z,52.60
2019-03-09T00:34:19.968Z,52.70
2019-03-09T00:36:28.035Z,52.60
2019-03-09T00:38:32.427Z,52.50
2019-03-09T00:40:37.265Z,52.40
2019-03-09T00:42:42.193Z,52.50
2019-03-09T00:44:46.992Z,52.60
2019-03-09T00:46:51.757Z,52.70
2019-03-09T00:48:56.495Z,52.60
2019-03-09T00:51:01.267Z,52.30
2019-03-09T00:53:05.964Z,52.60
2019-03-09T00:55:13.402Z,52.50
2019-03-09T00:57:18.169Z,52.50
2019-03-09T00:59:22.939Z,52.50
2019-03-09T01:01:27.678Z,52.50
2019-03-09T01:03:32.453Z,52.60
2019-03-09T01:05:37.154Z,52.90
2019-03-09T01:07:41.967Z,52.50
2019-03-09T01:09:46.717Z,52.60
2019-03-09T01:11:51.403Z,52.60
2019-03-09T01:13:56.083Z,52.50
2019-03-09T01:16:00.891Z,52.50
2019-03-09T01:18:06.630Z,52.50
2019-03-09T01:20:13.213Z,52.50
2019-03-09T01:22:17.931Z,52.50
2019-03-09T01:24:22.683Z,52.40
2019-03-09T01:26:27.642Z,52.50
2019-03-09T01:28:32.365Z,52.30
2019-03-09T01:30:37.124Z,52.30
2019-03-09T01:32:41.818Z,52.20
2019-03-09T01:34:46.546Z,52.30
2019-03-09T01:36:51.299Z,52.40
2019-03-09T01:38:56.001Z,52.30
2019-03-09T01:41:00.704Z,52.20
2019-03-09T01:43:05.396Z,52.20
2019-03-09T01:45:11.193Z,52.20
2019-03-09T01:47:15.877Z,52.20
2019-03-09T01:49:20.584Z,52.20
2019-03-09T01:51:25.288Z,52.30
2019-03-09T01:53:36.791Z,52.20
2019-03-09T01:55:36.554Z,52.10
2019-03-09T01:57:41.365Z,52.10
2019-03-09T01:59:46.116Z,52.10
2019-03-09T02:01:50.861Z,52.20
2019-03-09T02:03:55.629Z,52.10
2019-03-09T02:06:00.327Z,52.10
2019-03-09T02:08:05.059Z,52.10
2019-03-09T02:10:09.787Z,52.10
2019-03-09T02:12:14.504Z,52.10
2019-03-09T02:14:19.208Z,52.00
2019-03-09T02:16:23.865Z,51.90
2019-03-09T02:18:28.598Z,51.90
2019-03-09T02:20:33.317Z,51.90
2019-03-09T02:22:38.084Z,51.90
2019-03-09T02:24:42.795Z,51.90
2019-03-09T02:26:47.587Z,51.90
2019-03-09T02:28:52.628Z,51.90
2019-03-09T02:30:57.516Z,51.90
2019-03-09T02:33:02.419Z,51.90
2019-03-09T02:35:08.680Z,51.90
2019-03-09T02:37:13.409Z,51.90
2019-03-09T02:39:29.237Z,51.90
2019-03-09T02:41:33.992Z,51.90
2019-03-09T02:43:38.815Z,51.90
2019-03-09T02:45:43.513Z,51.80
2019-03-09T02:47:48.298Z,51.80
2019-03-09T02:49:52.945Z,51.90
2019-03-09T02:51:57.714Z,51.80
2019-03-09T02:54:02.450Z,51.80
2019-03-09T02:56:07.254Z,51.80
2019-03-09T02:58:11.972Z,51.80
2019-03-09T03:00:17.708Z,51.80
2019-03-09T03:02:33.861Z,51.80
2019-03-09T03:04:38.577Z,51.70
2019-03-09T03:06:43.274Z,51.70
2019-03-09T03:08:48.038Z,51.70
2019-03-09T03:10:52.725Z,51.70
2019-03-09T03:12:57.486Z,51.70
2019-03-09T03:15:02.321Z,51.70
2019-03-09T03:17:07.147Z,51.70
2019-03-09T03:19:11.855Z,51.70
2019-03-09T03:21:16.631Z,51.70
2019-03-09T03:23:21.379Z,51.70
2019-03-09T03:25:26.077Z,51.70
2019-03-09T03:27:31.071Z,51.60
2019-03-09T03:29:35.898Z,51.70
2019-03-09T03:31:40.635Z,51.70
2019-03-09T03:33:45.333Z,51.70
2019-03-09T03:35:50.088Z,51.60
2019-03-09T03:37:54.788Z,51.70
2019-03-09T03:39:59.507Z,51.70
2019-03-09T03:42:04.241Z,51.70
2019-03-09T03:44:08.939Z,51.60
2019-03-09T03:46:14.673Z,51.60
2019-03-09T03:48:19.363Z,51.60
2019-03-09T03:50:24.097Z,51.70
2019-03-09T03:52:28.824Z,51.60
2019-03-09T03:54:33.545Z,51.70
2019-03-09T03:56:38.329Z,51.70
2019-03-09T03:58:43.239Z,51.60
2019-03-09T04:00:48.967Z,51.60
2019-03-09T04:02:53.730Z,51.60
2019-03-09T04:04:58.459Z,51.60
2019-03-09T04:07:03.176Z,51.60
2019-03-09T04:09:07.899Z,51.60
2019-03-09T04:11:12.913Z,51.60
2019-03-09T04:13:17.972Z,51.60
2019-03-09T04:15:22.718Z,51.60
2019-03-09T04:17:27.425Z,51.50
2019-03-09T04:19:32.170Z,51.50
2019-03-09T04:21:36.930Z,51.50
2019-03-09T04:23:41.633Z,51.60
2019-03-09T04:25:46.329Z,51.60
2019-03-09T04:27:51.051Z,51.60
2019-03-09T04:29:55.796Z,51.60
2019-03-09T04:32:00.560Z,51.60
2019-03-09T04:34:05.290Z,51.50
2019-03-09T04:36:10.037Z,51.60
2019-03-09T04:38:14.794Z,51.50
2019-03-09T04:40:19.521Z,51.60
2019-03-09T04:42:24.695Z,51.60
2019-03-09T04:44:29.606Z,51.60
2019-03-09T04:46:34.639Z,51.60
2019-03-09T04:48:39.466Z,51.60
2019-03-09T04:50:44.266Z,51.60
2019-03-09T04:52:49.054Z,51.60
2019-03-09T04:54:53.832Z,51.60
2019-03-09T04:56:59.055Z,51.60
2019-03-09T04:59:03.782Z,51.60
2019-03-09T05:01:08.487Z,51.50
2019-03-09T05:03:13.162Z,51.50
2019-03-09T05:05:17.919Z,51.50
2019-03-09T05:07:34.649Z,51.50
2019-03-09T05:09:53.401Z,51.50
2019-03-09T05:11:58.164Z,51.40
2019-03-09T05:14:12.728Z,52.10
2019-03-09T05:16:18.378Z,51.40
2019-03-09T05:18:23.125Z,51.40
2019-03-09T05:20:27.859Z,51.40
2019-03-09T05:22:33.529Z,51.30
2019-03-09T05:24:38.294Z,51.40
2019-03-09T05:26:44.946Z,51.30
2019-03-09T05:28:49.384Z,51.30
2019-03-09T05:30:54.120Z,51.30
2019-03-09T05:32:58.776Z,51.30
2019-03-09T05:35:03.519Z,51.30
2019-03-09T05:37:09.459Z,51.40
2019-03-09T05:39:14.154Z,51.30
2019-03-09T05:41:18.985Z,51.30
2019-03-09T05:43:24.967Z,51.30
2019-03-09T05:45:29.885Z,51.30
2019-03-09T05:47:34.768Z,51.30
2019-03-09T05:49:39.576Z,51.30
2019-03-09T05:51:44.288Z,51.30
2019-03-09T05:53:49.076Z,51.30
2019-03-09T05:55:53.910Z,51.30
2019-03-09T05:57:58.745Z,51.30
2019-03-09T06:00:04.587Z,51.30
2019-03-09T06:02:09.507Z,51.30
2019-03-09T06:04:14.452Z,51.30
2019-03-09T06:06:19.805Z,51.30
2019-03-09T06:08:24.595Z,51.30
2019-03-09T06:10:29.342Z,51.30
2019-03-09T06:12:34.133Z,51.30
2019-03-09T06:14:38.933Z,51.30
2019-03-09T06:16:43.650Z,51.30
2019-03-09T06:18:48.474Z,51.30
2019-03-09T06:20:53.386Z,51.20
2019-03-09T06:22:58.165Z,51.20
2019-03-09T06:25:02.897Z,51.30
2019-03-09T06:27:07.840Z,51.30
2019-03-09T06:29:12.518Z,51.20
2019-03-09T06:31:17.255Z,51.30
2019-03-09T06:33:33.509Z,51.30
2019-03-09T06:35:38.312Z,51.30
2019-03-09T06:37:47.333Z,51.30
2019-03-09T06:39:53.919Z,51.30
2019-03-09T06:42:23.494Z,51.30
2019-03-09T06:44:28.256Z,51.30
2019-03-09T06:46:32.959Z,51.30
2019-03-09T06:48:38.373Z,51.30
2019-03-09T06:50:43.216Z,51.30
2019-03-09T06:52:48.005Z,51.30
2019-03-09T06:54:53.813Z,51.30
2019-03-09T06:56:58.720Z,51.30
2019-03-09T06:59:03.586Z,51.30
2019-03-09T07:01:18.033Z,51.20
2019-03-09T07:03:22.981Z,51.30
2019-03-09T07:05:28.791Z,51.20
2019-03-09T07:07:33.745Z,51.20
2019-03-09T07:09:38.642Z,51.30
2019-03-09T07:11:43.491Z,51.10
2019-03-09T07:13:52.814Z,51.30
2019-03-09T07:15:54.856Z,51.30
2019-03-09T07:18:08.234Z,51.20
2019-03-09T07:20:13.231Z,51.30
2019-03-09T07:22:18.180Z,51.20
2019-03-09T07:24:24.553Z,51.20
2019-03-09T07:26:29.393Z,51.30
2019-03-09T07:28:34.181Z,51.70
2019-03-09T07:30:39.045Z,51.20
2019-03-09T07:32:44.830Z,51.20
2019-03-09T07:34:49.658Z,51.20
2019-03-09T07:36:54.672Z,51.10
2019-03-09T07:38:59.390Z,51.10
2019-03-09T07:41:05.113Z,51.10
2019-03-09T07:43:09.884Z,51.00
2019-03-09T07:45:14.949Z,51.00
2019-03-09T07:47:19.695Z,51.00
2019-03-09T07:49:24.641Z,50.90
2019-03-09T07:51:29.454Z,51.00
2019-03-09T07:53:34.248Z,50.90
2019-03-09T07:55:39.057Z,50.90
2019-03-09T07:57:43.948Z,50.90
2019-03-09T07:59:48.674Z,50.90
2019-03-09T08:01:53.546Z,50.80
2019-03-09T08:03:58.370Z,50.80
2019-03-09T08:06:03.095Z,51.30
2019-03-09T08:08:07.933Z,50.80
2019-03-09T08:10:14.813Z,50.70
2019-03-09T08:12:19.706Z,50.80
2019-03-09T08:14:24.453Z,50.80
2019-03-09T08:16:35.870Z,50.80
2019-03-09T08:18:37.276Z,50.80
2019-03-09T08:20:42.010Z,50.50
2019-03-09T08:22:48.541Z,50.80
2019-03-09T08:24:53.335Z,50.50
2019-03-09T08:26:58.183Z,50.60
2019-03-09T08:29:03.025Z,50.60
2019-03-09T08:31:08.130Z,50.80
2019-03-09T08:33:13.033Z,50.60
2019-03-09T08:35:18.910Z,50.70
2019-03-09T08:37:23.887Z,50.60
2019-03-09T08:39:51.276Z,50.50
2019-03-09T08:41:57.469Z,50.40
2019-03-09T08:44:02.410Z,50.40
2019-03-09T08:46:07.340Z,50.30
2019-03-09T08:48:12.394Z,50.30
2019-03-09T08:50:18.856Z,50.30
2019-03-09T08:52:23.652Z,50.40
2019-03-09T08:54:28.464Z,50.20
2019-03-09T08:56:33.589Z,50.20
2019-03-09T08:58:38.485Z,50.20
2019-03-09T09:00:43.456Z,50.10
2019-03-09T09:02:48.240Z,50.10
2019-03-09T09:04:53.246Z,50.20
2019-03-09T09:06:58.105Z,50.80
2019-03-09T09:09:03.828Z,50.20
2019-03-09T09:11:10.210Z,50.30
2019-03-09T09:13:14.998Z,50.30
2019-03-09T09:15:19.913Z,50.40
2019-03-09T09:17:24.753Z,50.40
2019-03-09T09:19:29.680Z,50.40
2019-03-09T09:21:34.843Z,50.30
2019-03-09T09:23:39.680Z,50.30
2019-03-09T09:25:45.116Z,50.80
2019-03-09T09:27:51.777Z,50.10
2019-03-09T09:29:56.673Z,50.10
2019-03-09T09:32:01.482Z,50.10
2019-03-09T09:34:06.239Z,50.10
2019-03-09T09:36:11.173Z,50.10
2019-03-09T09:38:17.143Z,49.90
2019-03-09T09:40:22.453Z,49.90
2019-03-09T09:42:27.334Z,49.90
2019-03-09T09:44:35.797Z,50.00
2019-03-09T09:46:40.691Z,50.10
2019-03-09T09:48:45.527Z,50.10
2019-03-09T09:50:50.233Z,50.00
2019-03-09T09:52:55.002Z,50.10
2019-03-09T09:54:59.772Z,50.10
2019-03-09T09:57:04.854Z,50.00
2019-03-09T09:59:09.777Z,50.00
2019-03-09T10:01:14.876Z,50.10
2019-03-09T10:03:20.211Z,50.10
2019-03-09T10:05:37.014Z,50.10
2019-03-09T10:07:43.694Z,50.40
2019-03-09T10:09:48.475Z,50.30
2019-03-09T10:11:54.764Z,50.40
2019-03-09T10:13:59.644Z,50.30
2019-03-09T10:16:05.421Z,50.40
2019-03-09T10:18:11.347Z,50.90
2019-03-09T10:20:16.173Z,50.80
2019-03-09T10:22:21.059Z,50.80
2019-03-09T10:24:25.821Z,50.70
2019-03-09T10:26:30.688Z,50.90
2019-03-09T10:28:36.868Z,51.00
2019-03-09T10:30:44.826Z,50.80
2019-03-09T10:33:00.094Z,51.00
2019-03-09T10:35:16.194Z,50.80
2019-03-09T10:37:41.238Z,51.00
2019-03-09T10:39:48.680Z,51.70
2019-03-09T10:41:53.831Z,51.30
2019-03-09T10:43:58.633Z,51.10
2019-03-09T10:46:03.499Z,51.00
2019-03-09T10:48:09.435Z,51.30
2019-03-09T10:50:17.160Z,51.10
2019-03-09T10:52:22.125Z,51.00
2019-03-09T10:54:35.744Z,51.10
2019-03-09T10:56:33.478Z,51.40
2019-03-09T10:58:47.830Z,51.20
2019-03-09T11:00:52.774Z,51.30
2019-03-09T11:02:57.524Z,51.10
2019-03-09T11:05:02.381Z,50.20
2019-03-09T11:07:07.205Z,49.70
2019-03-09T11:09:11.925Z,49.70
2019-03-09T11:11:16.764Z,49.50
2019-03-09T11:13:21.545Z,49.60
2019-03-09T11:15:26.394Z,49.60
2019-03-09T11:17:31.582Z,49.60
2019-03-09T11:19:36.401Z,49.70
2019-03-09T11:21:41.290Z,49.70
2019-03-09T11:23:46.293Z,49.80
2019-03-09T11:25:51.205Z,50.00
2019-03-09T11:27:56.033Z,49.90
2019-03-09T11:30:00.761Z,50.00
2019-03-09T11:32:06.589Z,49.80
2019-03-09T11:34:11.314Z,50.00
2019-03-09T11:36:17.411Z,49.90
2019-03-09T11:38:22.164Z,49.70
2019-03-09T11:40:27.125Z,49.70
2019-03-09T11:42:31.994Z,49.60
2019-03-09T11:44:36.818Z,49.80
2019-03-09T11:46:41.541Z,50.00
2019-03-09T11:48:46.343Z,50.10
2019-03-09T11:50:51.127Z,50.10
2019-03-09T11:52:56.894Z,50.50
2019-03-09T11:55:01.725Z,50.10
2019-03-09T11:57:06.609Z,50.00
2019-03-09T11:59:11.513Z,49.80
2019-03-09T12:01:16.758Z,50.10
2019-03-09T12:03:21.704Z,50.10
2019-03-09T12:05:27.471Z,49.90
2019-03-09T12:07:32.227Z,50.20
2019-03-09T12:09:36.995Z,51.10
2019-03-09T12:11:41.761Z,51.80
2019-03-09T12:13:46.575Z,52.50
2019-03-09T12:15:51.329Z,52.30
2019-03-09T12:17:56.232Z,52.50
2019-03-09T12:20:01.073Z,52.50
2019-03-09T12:22:07.124Z,52.60
2019-03-09T12:24:16.729Z,52.70
2019-03-09T12:26:18.866Z,52.80
2019-03-09T12:28:23.662Z,53.00
2019-03-09T12:30:32.926Z,53.10
2019-03-09T12:32:37.805Z,53.20
2019-03-09T12:34:42.724Z,52.90
2019-03-09T12:36:47.514Z,52.90
2019-03-09T12:38:52.664Z,53.40
2019-03-09T12:40:57.562Z,53.00
2019-03-09T12:43:02.429Z,52.40
2019-03-09T12:45:08.233Z,52.50
2019-03-09T12:47:13.690Z,52.40
2019-03-09T12:49:19.631Z,52.20
2019-03-09T12:51:25.699Z,52.00
2019-03-09T12:53:31.350Z,52.00
2019-03-09T12:55:40.760Z,51.80
2019-03-09T12:57:46.062Z,51.70
2019-03-09T12:59:52.548Z,51.60
2019-03-09T13:02:02.719Z,51.50
2019-03-09T13:04:12.213Z,51.40
2019-03-09T13:06:17.169Z,51.30
2019-03-09T13:08:23.553Z,51.30
2019-03-09T13:10:28.689Z,51.30
2019-03-09T13:12:33.620Z,51.10
2019-03-09T13:14:39.185Z,51.30
2019-03-09T13:16:44.187Z,51.20
2019-03-09T13:18:48.906Z,51.10
2019-03-09T13:20:55.761Z,51.10
2019-03-09T13:23:00.652Z,51.10
2019-03-09T13:25:10.305Z,51.00
2019-03-09T13:27:15.549Z,51.10
2019-03-09T13:29:20.365Z,51.30
2019-03-09T13:31:28.027Z,51.30
2019-03-09T13:33:34.694Z,51.30
2019-03-09T13:35:39.497Z,51.10
2019-03-09T13:37:44.305Z,51.00
2019-03-09T13:39:50.008Z,50.90
2019-03-09T13:41:54.907Z,50.70
2019-03-09T13:43:59.727Z,50.70
2019-03-09T13:46:04.591Z,50.60
2019-03-09T13:48:09.365Z,50.60
2019-03-09T13:50:14.177Z,50.40
2019-03-09T13:52:19.025Z,50.40
2019-03-09T13:54:23.818Z,50.40
2019-03-09T13:56:40.420Z,50.40
2019-03-09T13:58:45.182Z,50.40
2019-03-09T14:00:50.082Z,50.30
2019-03-09T14:02:54.946Z,50.20
2019-03-09T14:04:59.785Z,50.20
2019-03-09T14:07:04.540Z,50.10
2019-03-09T14:09:09.379Z,50.10
2019-03-09T14:11:14.351Z,50.10
2019-03-09T14:13:19.257Z,50.10
2019-03-09T14:15:24.107Z,49.90
2019-03-09T14:17:28.885Z,49.90
2019-03-09T14:19:33.747Z,49.90
2019-03-09T14:21:38.510Z,49.90
2019-03-09T14:23:43.325Z,49.80
2019-03-09T14:25:48.101Z,49.80
2019-03-09T14:27:52.892Z,49.80
2019-03-09T14:29:57.765Z,49.70
2019-03-09T14:32:02.552Z,49.60
2019-03-09T14:34:07.313Z,49.60
2019-03-09T14:36:12.297Z,49.60
2019-03-09T14:38:17.143Z,49.50
2019-03-09T14:40:22.053Z,49.50
2019-03-09T14:42:27.014Z,49.50
2019-03-09T14:44:31.850Z,49.50
2019-03-09T14:46:36.700Z,49.40
2019-03-09T14:48:41.503Z,49.40
2019-03-09T14:50:46.272Z,49.30
2019-03-09T14:52:51.128Z,49.30
2019-03-09T14:54:55.881Z,49.20
2019-03-09T14:57:00.752Z,49.20
2019-03-09T14:59:06.542Z,49.10
2019-03-09T15:01:11.397Z,49.20
2019-03-09T15:03:16.234Z,49.10
2019-03-09T15:05:21.034Z,49.10
2019-03-09T15:07:25.954Z,49.00
2019-03-09T15:09:30.773Z,48.90
2019-03-09T15:11:35.649Z,49.00
2019-03-09T15:13:40.435Z,49.10
2019-03-09T15:15:45.239Z,48.90
2019-03-09T15:17:50.097Z,48.90
2019-03-09T15:19:55.041Z,48.80
2019-03-09T15:22:00.776Z,48.90
2019-03-09T15:24:05.503Z,48.90
2019-03-09T15:26:10.319Z,48.80
2019-03-09T15:28:15.218Z,48.80
2019-03-09T15:30:20.057Z,48.80
2019-03-09T15:32:26.476Z,48.80
2019-03-09T15:34:31.209Z,48.80
2019-03-09T15:36:35.978Z,48.80
2019-03-09T15:38:40.752Z,48.80
2019-03-09T15:40:45.610Z,48.80
2019-03-09T15:42:50.422Z,48.90
2019-03-09T15:44:55.375Z,48.80
2019-03-09T15:47:00.215Z,48.80
2019-03-09T15:49:05.038Z,48.80
2019-03-09T15:51:09.841Z,48.80
2019-03-09T15:53:14.896Z,48.80
2019-03-09T15:55:19.721Z,48.70
2019-03-09T15:57:24.536Z,48.80
2019-03-09T15:59:29.405Z,48.80
2019-03-09T16:01:34.193Z,48.70
2019-03-09T16:03:40.652Z,48.80
2019-03-09T16:05:45.399Z,48.80
2019-03-09T16:07:50.252Z,48.80
2019-03-09T16:09:54.998Z,48.80
2019-03-09T16:11:59.787Z,48.80
2019-03-09T16:14:04.785Z,48.80
2019-03-09T16:16:11.745Z,48.80
2019-03-09T16:18:16.549Z,48.80
2019-03-09T16:20:21.926Z,48.80
2019-03-09T16:22:26.733Z,48.80
2019-03-09T16:24:31.520Z,49.00
2019-03-09T16:26:36.308Z,48.90
2019-03-09T16:28:41.067Z,48.80
2019-03-09T16:30:45.851Z,48.80
2019-03-09T16:32:50.674Z,48.90
2019-03-09T16:34:55.458Z,48.90
2019-03-09T16:37:00.339Z,48.90
2019-03-09T16:39:05.626Z,48.90
2019-03-09T16:41:11.369Z,48.90
2019-03-09T16:43:16.221Z,48.80
2019-03-09T16:45:21.086Z,48.90
2019-03-09T16:47:25.796Z,48.90
2019-03-09T16:49:30.766Z,48.90
2019-03-09T16:51:35.486Z,48.90
2019-03-09T16:53:40.259Z,48.90
2019-03-09T16:55:44.988Z,48.80
2019-03-09T16:57:49.807Z,48.80
2019-03-09T16:59:54.628Z,48.80
2019-03-09T17:01:59.455Z,48.90
2019-03-09T17:04:04.267Z,48.90
2019-03-09T17:06:09.000Z,48.90
2019-03-09T17:08:13.978Z,48.90
2019-03-09T17:10:19.549Z,48.90
2019-03-09T17:12:24.511Z,48.90
2019-03-09T17:14:30.417Z,48.90
2019-03-09T17:16:35.313Z,48.90
2019-03-09T17:18:40.196Z,49.00
2019-03-09T17:20:45.038Z,49.00
2019-03-09T17:22:50.014Z,48.90
2019-03-09T17:24:54.801Z,48.90
2019-03-09T17:26:59.552Z,48.90
2019-03-09T17:29:04.457Z,48.90
2019-03-09T17:31:11.002Z,48.90
2019-03-09T17:33:15.964Z,48.90
2019-03-09T17:35:21.825Z,48.90
2019-03-09T17:37:28.781Z,48.90
2019-03-09T17:39:33.661Z,48.90
2019-03-09T17:41:38.532Z,48.90
2019-03-09T17:43:43.411Z,48.90
2019-03-09T17:45:48.322Z,48.90
2019-03-09T17:47:53.178Z,48.90
2019-03-09T17:49:59.205Z,48.90
2019-03-09T17:52:04.138Z,48.90
2019-03-09T17:54:08.860Z,48.90
2019-03-09T17:56:13.712Z,48.90
2019-03-09T17:58:18.554Z,48.90
2019-03-09T18:00:23.895Z,48.90
2019-03-09T18:02:28.713Z,48.90
2019-03-09T18:04:33.451Z,48.90
2019-03-09T18:06:38.221Z,48.90
2019-03-09T18:08:43.094Z,48.90
2019-03-09T18:10:54.855Z,48.90
2019-03-09T18:13:12.612Z,48.90
2019-03-09T18:15:25.235Z,48.80
2019-03-09T18:17:32.698Z,48.80
2019-03-09T18:19:51.786Z,48.80
2019-03-09T18:21:59.231Z,48.80
2019-03-09T18:24:07.776Z,48.80
2019-03-09T18:26:18.637Z,48.80
2019-03-09T18:28:25.222Z,48.80
2019-03-09T18:30:31.424Z,48.80
2019-03-09T18:32:38.216Z,48.70
2019-03-09T18:34:47.618Z,48.70
2019-03-09T18:36:56.747Z,48.70
2019-03-09T18:39:05.255Z,48.60
2019-03-09T18:41:12.169Z,48.60
2019-03-09T18:43:19.925Z,48.60
2019-03-09T18:45:31.369Z,48.60
2019-03-09T18:47:46.076Z,48.60
2019-03-09T18:49:56.167Z,48.60
2019-03-09T18:52:12.002Z,48.50
2019-03-09T18:54:17.366Z,48.50
2019-03-09T18:56:48.102Z,48.50
2019-03-09T18:58:56.298Z,48.50
2019-03-09T19:01:01.357Z,48.70
2019-03-09T19:03:07.758Z,48.70
2019-03-09T19:05:12.634Z,49.30
2019-03-09T19:07:17.674Z,49.70
2019-03-09T19:09:22.554Z,50.20
2019-03-09T19:11:27.434Z,50.40
2019-03-09T19:13:32.373Z,50.60
2019-03-09T19:15:38.841Z,51.10
2019-03-09T19:17:43.714Z,51.20
2019-03-09T19:19:48.844Z,51.20
2019-03-09T19:21:53.723Z,52.10
2019-03-09T19:23:58.490Z,51.70
2019-03-09T19:26:03.340Z,51.90
2019-03-09T19:28:09.473Z,52.20
2019-03-09T19:30:17.307Z,52.20
2019-03-09T19:32:27.605Z,53.30
2019-03-09T19:34:43.050Z,54.20
2019-03-09T19:36:47.837Z,53.70
2019-03-09T19:38:52.678Z,53.80
2019-03-09T19:40:57.601Z,53.40
2019-03-09T19:43:03.695Z,53.70
2019-03-09T19:45:10.080Z,53.70
2019-03-09T19:47:15.022Z,52.90
2019-03-09T19:49:19.872Z,52.60
2019-03-09T19:51:27.858Z,52.80
2019-03-09T19:53:32.833Z,52.30
2019-03-09T19:55:37.650Z,52.00
2019-03-09T19:57:43.812Z,53.60
2019-03-09T19:59:48.738Z,53.30
2019-03-09T20:01:53.881Z,52.10
2019-03-09T20:03:58.712Z,52.40
2019-03-09T20:06:03.570Z,52.30
2019-03-09T20:08:19.014Z,52.80
2019-03-09T20:10:23.972Z,53.10
2019-03-09T20:12:29.439Z,52.60
2019-03-09T20:14:37.569Z,52.60
2019-03-09T20:16:42.394Z,52.80
2019-03-09T20:18:47.420Z,52.90
2019-03-09T20:20:52.205Z,52.70
2019-03-09T20:22:57.114Z,52.90
2019-03-09T20:25:03.103Z,52.60
2019-03-09T20:27:11.421Z,52.60
2019-03-09T20:29:18.604Z,52.80
2019-03-09T20:31:23.504Z,53.00
2019-03-09T20:33:28.492Z,52.60
2019-03-09T20:35:35.068Z,52.60
2019-03-09T20:37:43.015Z,52.60
2019-03-09T20:39:48.392Z,52.90
2019-03-09T20:41:55.714Z,52.60
2019-03-09T20:44:00.515Z,52.60
2019-03-09T20:46:05.434Z,52.90
2019-03-09T20:48:12.494Z,53.10
2019-03-09T20:50:17.339Z,52.90
2019-03-09T20:52:22.293Z,52.90
2019-03-09T20:54:27.147Z,53.10
2019-03-09T20:56:32.135Z,52.90
2019-03-09T20:58:36.909Z,52.80
2019-03-09T21:00:41.815Z,52.90
2019-03-09T21:02:56.712Z,52.90
2019-03-09T21:05:01.989Z,52.90
2019-03-09T21:07:06.880Z,52.70
2019-03-09T21:09:11.729Z,53.00
2019-03-09T21:11:19.129Z,52.60
2019-03-09T21:13:28.995Z,52.80
2019-03-09T21:15:44.504Z,52.90
2019-03-09T21:17:49.529Z,53.20
2019-03-09T21:19:54.358Z,53.20
2019-03-09T21:22:04.054Z,53.30
2019-03-09T21:24:09.377Z,53.00
2019-03-09T21:26:15.021Z,53.10
2019-03-09T21:28:24.517Z,53.10
2019-03-09T21:30:29.680Z,53.10
2019-03-09T21:32:34.591Z,53.00
2019-03-09T21:34:39.531Z,53.10
2019-03-09T21:36:44.473Z,52.80
2019-03-09T21:38:49.512Z,53.10
2019-03-09T21:40:54.319Z,53.10
2019-03-09T21:43:08.954Z,53.00
2019-03-09T21:45:13.871Z,52.90
2019-03-09T21:47:18.731Z,53.00
2019-03-09T21:49:23.974Z,52.80
2019-03-09T21:51:31.071Z,52.90
2019-03-09T21:53:35.993Z,52.80
2019-03-09T21:55:40.784Z,52.80
2019-03-09T21:58:06.970Z,52.80
2019-03-09T22:00:15.543Z,52.60
2019-03-09T22:02:20.469Z,52.60
2019-03-09T22:04:25.369Z,52.50
2019-03-09T22:06:30.165Z,52.70
2019-03-09T22:08:35.053Z,52.70
2019-03-09T22:10:45.337Z,52.60
2019-03-09T22:12:51.374Z,52.50
2019-03-09T22:14:56.236Z,52.60
2019-03-09T22:17:01.100Z,52.60
2019-03-09T22:19:06.054Z,52.50
2019-03-09T22:21:11.605Z,52.60
2019-03-09T22:23:16.612Z,52.80
2019-03-09T22:25:23.638Z,52.50
2019-03-09T22:27:30.600Z,52.80
2019-03-09T22:29:35.405Z,52.60
2019-03-09T22:31:43.526Z,52.70
2019-03-09T22:33:48.556Z,52.80
2019-03-09T22:35:55.877Z,52.50
2019-03-09T22:38:00.708Z,52.50
2019-03-09T22:40:06.189Z,52.50
2019-03-09T22:42:10.952Z,52.70
2019-03-09T22:44:15.976Z,52.50
2019-03-09T22:46:28.143Z,52.50
2019-03-09T22:48:33.996Z,52.50
2019-03-09T22:50:39.023Z,52.80
2019-03-09T22:52:44.005Z,52.60
2019-03-09T22:54:48.996Z,52.80
2019-03-09T22:56:54.224Z,53.00
2019-03-09T22:58:59.177Z,52.70
2019-03-09T23:01:03.928Z,52.70
2019-03-09T23:03:09.016Z,52.60
2019-03-09T23:05:13.861Z,52.60
2019-03-09T23:07:18.675Z,53.50
2019-03-09T23:09:23.658Z,52.70
2019-03-09T23:11:28.536Z,52.70
2019-03-09T23:13:33.443Z,52.60
2019-03-09T23:15:38.476Z,52.70
2019-03-09T23:17:43.472Z,52.70
2019-03-09T23:19:48.219Z,52.60
2019-03-09T23:21:53.067Z,52.60
2019-03-09T23:23:57.980Z,52.70
2019-03-09T23:26:05.116Z,53.00
2019-03-09T23:28:09.935Z,52.70
2019-03-09T23:30:16.185Z,52.80
2019-03-09T23:32:21.177Z,52.90
2019-03-09T23:34:26.049Z,52.70
2019-03-09T23:36:30.950Z,52.80
2019-03-09T23:38:35.678Z,52.80
2019-03-09T23:40:40.490Z,52.90
2019-03-09T23:42:45.318Z,52.70
2019-03-09T23:44:50.110Z,52.80
2019-03-09T23:46:55.255Z,52.70
2019-03-09T23:49:00.158Z,52.80
2019-03-09T23:51:05.033Z,52.70
2019-03-09T23:53:09.850Z,52.70
2019-03-09T23:55:22.167Z,52.60
2019-03-09T23:57:21.306Z,52.60
2019-03-09T23:59:26.054Z,52.60
